createdAt,value
2019-03-27T00:02:25.014Z,6.80
2019-03-27T00:04:56.199Z,6.80
2019-03-27T00:07:27.573Z,6.80
2019-03-27T00:09:58.637Z,6.80
2019-03-27T00:12:29.633Z,6.70
2019-03-27T00:15:12.079Z,6.70
2019-03-27T00:17:33.334Z,6.70
2019-03-27T00:20:08.623Z,6.70
2019-03-27T00:22:39.723Z,6.70
2019-03-27T00:25:11.212Z,6.60
2019-03-27T00:27:42.251Z,6.60
2019-03-27T00:30:13.439Z,6.60
2019-03-27T00:32:44.458Z,6.60
2019-03-27T00:35:15.625Z,6.60
2019-03-27T00:37:46.456Z,6.60
2019-03-27T00:40:17.740Z,6.60
2019-03-27T00:42:50.080Z,6.60
2019-03-27T00:45:27.006Z,6.50
2019-03-27T00:47:53.780Z,6.50
2019-03-27T00:50:25.030Z,6.40
2019-03-27T00:52:56.108Z,6.40
2019-03-27T00:55:27.245Z,6.40
2019-03-27T00:57:58.262Z,6.30
2019-03-27T01:00:42.135Z,6.20
2019-03-27T01:03:13.585Z,6.20
2019-03-27T01:05:44.612Z,6.20
2019-03-27T01:08:16.578Z,6.20
2019-03-27T01:10:49.994Z,6.10
2019-03-27T01:13:21.002Z,6.10
2019-03-27T01:15:52.036Z,6.00
2019-03-27T01:18:23.023Z,6.00
2019-03-27T01:20:54.860Z,6.00
2019-03-27T01:23:25.725Z,5.90
2019-03-27T01:25:56.866Z,5.90
2019-03-27T01:28:28.794Z,5.90
2019-03-27T01:30:59.854Z,5.80
2019-03-27T01:33:30.843Z,5.80
2019-03-27T01:36:01.994Z,5.80
2019-03-27T01:38:32.934Z,5.70
2019-03-27T01:41:03.972Z,5.60
2019-03-27T01:43:35.018Z,5.60
2019-03-27T01:46:06.094Z,5.50
2019-03-27T01:48:37.045Z,5.50
2019-03-27T01:51:08.198Z,5.40
2019-03-27T01:53:39.241Z,5.40
2019-03-27T01:56:10.264Z,5.30
2019-03-27T01:58:41.283Z,5.30
2019-03-27T02:01:12.341Z,5.30
2019-03-27T02:03:46.366Z,5.20
2019-03-27T02:06:17.486Z,5.20
2019-03-27T02:08:48.741Z,5.20
2019-03-27T02:11:19.846Z,5.20
2019-03-27T02:13:50.927Z,5.20
2019-03-27T02:16:22.030Z,5.10
2019-03-27T02:18:53.068Z,5.10
2019-03-27T02:21:25.174Z,5.10
2019-03-27T02:23:56.182Z,5.10
2019-03-27T02:26:27.257Z,5.10
2019-03-27T02:28:58.218Z,5.00
2019-03-27T02:31:29.239Z,5.00
2019-03-27T02:34:00.199Z,4.90
2019-03-27T02:36:31.334Z,4.90
2019-03-27T02:39:02.499Z,4.90
2019-03-27T02:41:34.742Z,4.90
2019-03-27T02:44:05.747Z,4.80
2019-03-27T02:46:36.808Z,4.80
2019-03-27T02:49:07.838Z,4.80
2019-03-27T02:51:39.258Z,4.80
2019-03-27T02:54:10.654Z,4.70
2019-03-27T02:56:41.699Z,4.70
2019-03-27T02:59:12.688Z,4.70
2019-03-27T03:01:47.786Z,4.60
2019-03-27T03:04:16.715Z,4.60
2019-03-27T03:06:47.954Z,4.60
2019-03-27T03:09:19.122Z,4.50
2019-03-27T03:11:50.185Z,4.50
2019-03-27T03:14:24.834Z,4.60
2019-03-27T03:16:55.838Z,4.60
2019-03-27T03:19:27.217Z,4.60
2019-03-27T03:21:58.358Z,4.50
2019-03-27T03:24:29.588Z,4.60
2019-03-27T03:27:00.691Z,4.60
2019-03-27T03:29:32.706Z,4.50
2019-03-27T03:32:03.876Z,4.50
2019-03-27T03:34:34.935Z,4.50
2019-03-27T03:37:06.086Z,4.60
2019-03-27T03:39:37.141Z,4.60
2019-03-27T03:42:08.094Z,4.60
2019-03-27T03:44:39.248Z,4.60
2019-03-27T03:47:10.745Z,4.60
2019-03-27T03:49:41.829Z,4.70
2019-03-27T03:52:12.941Z,4.70
2019-03-27T03:54:43.972Z,4.80
2019-03-27T03:57:15.908Z,4.90
2019-03-27T03:59:47.717Z,4.90
2019-03-27T04:02:19.468Z,5.00
2019-03-27T04:04:53.073Z,5.00
2019-03-27T04:07:24.200Z,5.00
2019-03-27T04:09:55.398Z,5.10
2019-03-27T04:12:26.374Z,5.10
2019-03-27T04:14:57.354Z,5.10
2019-03-27T04:17:28.434Z,5.10
2019-03-27T04:19:59.684Z,5.10
2019-03-27T04:22:30.892Z,5.20
2019-03-27T04:25:02.042Z,5.20
2019-03-27T04:27:35.039Z,5.20
2019-03-27T04:30:06.035Z,5.20
2019-03-27T04:32:37.157Z,5.30
2019-03-27T04:35:08.253Z,5.30
2019-03-27T04:37:39.502Z,5.30
2019-03-27T04:40:11.563Z,5.30
2019-03-27T04:42:43.848Z,5.40
2019-03-27T04:45:17.121Z,5.40
2019-03-27T04:47:48.311Z,5.30
2019-03-27T04:50:19.375Z,5.30
2019-03-27T04:52:50.621Z,5.40
2019-03-27T04:55:21.584Z,5.40
2019-03-27T04:57:52.679Z,5.40
2019-03-27T05:00:23.790Z,5.30
2019-03-27T05:02:55.649Z,5.40
2019-03-27T05:05:26.635Z,5.40
2019-03-27T05:07:57.898Z,5.40
2019-03-27T05:10:28.920Z,5.40
2019-03-27T05:13:00.025Z,5.40
2019-03-27T05:15:31.420Z,5.40
2019-03-27T05:18:02.498Z,5.40
2019-03-27T05:20:33.640Z,5.30
2019-03-27T05:23:04.859Z,5.30
2019-03-27T05:25:36.557Z,5.30
2019-03-27T05:28:07.575Z,5.30
2019-03-27T05:30:38.645Z,5.20
2019-03-27T05:33:10.936Z,5.20
2019-03-27T05:35:42.073Z,5.20
2019-03-27T05:38:13.389Z,5.20
2019-03-27T05:40:44.402Z,5.20
2019-03-27T05:43:15.566Z,5.10
2019-03-27T05:45:46.754Z,5.10
2019-03-27T05:48:17.806Z,5.00
2019-03-27T05:50:49.072Z,4.90
2019-03-27T05:53:20.491Z,4.90
2019-03-27T05:55:51.509Z,4.90
2019-03-27T05:58:22.651Z,4.90
2019-03-27T06:00:53.670Z,4.80
2019-03-27T06:03:24.648Z,4.80
2019-03-27T06:05:55.785Z,4.80
2019-03-27T06:08:27.046Z,4.80
2019-03-27T06:10:58.155Z,4.80
2019-03-27T06:13:29.362Z,4.80
2019-03-27T06:16:00.458Z,4.80
2019-03-27T06:18:31.735Z,4.80
2019-03-27T06:21:02.727Z,4.90
2019-03-27T06:23:34.046Z,4.90
2019-03-27T06:26:05.247Z,5.00
2019-03-27T06:28:36.436Z,5.00
2019-03-27T06:31:07.882Z,5.00
2019-03-27T06:33:39.136Z,5.10
2019-03-27T06:36:10.146Z,5.10
2019-03-27T06:38:41.479Z,5.20
2019-03-27T06:41:12.521Z,5.30
2019-03-27T06:43:43.723Z,5.30
2019-03-27T06:46:17.501Z,5.40
2019-03-27T06:48:48.703Z,5.50
2019-03-27T06:51:20.229Z,5.60
2019-03-27T06:53:53.650Z,5.60
2019-03-27T06:56:24.716Z,5.70
2019-03-27T06:58:55.845Z,5.80
2019-03-27T07:01:27.839Z,5.90
2019-03-27T07:04:10.005Z,6.00
2019-03-27T07:06:31.878Z,6.10
2019-03-27T07:09:03.010Z,6.20
2019-03-27T07:11:34.037Z,6.20
2019-03-27T07:14:13.293Z,6.30
2019-03-27T07:16:45.247Z,6.40
2019-03-27T07:19:17.106Z,6.40
2019-03-27T07:21:48.456Z,6.50
2019-03-27T07:24:20.349Z,6.60
2019-03-27T07:26:51.531Z,6.70
2019-03-27T07:29:22.870Z,6.90
2019-03-27T07:31:53.993Z,7.00
2019-03-27T07:34:25.967Z,7.00
2019-03-27T07:36:56.981Z,7.10
2019-03-27T07:39:28.076Z,7.20
2019-03-27T07:41:59.052Z,7.30
2019-03-27T07:44:30.235Z,7.30
2019-03-27T07:47:01.415Z,7.40
2019-03-27T07:49:33.616Z,7.60
2019-03-27T07:52:04.572Z,7.70
2019-03-27T07:54:37.526Z,7.80
2019-03-27T07:57:08.591Z,7.90
2019-03-27T07:59:39.654Z,8.00
2019-03-27T08:02:10.813Z,8.00
2019-03-27T08:04:41.835Z,8.10
2019-03-27T08:07:25.916Z,8.10
2019-03-27T08:09:45.575Z,8.10
2019-03-27T08:12:16.808Z,8.20
2019-03-27T08:14:53.664Z,8.30
2019-03-27T08:17:24.671Z,8.40
2019-03-27T08:19:55.754Z,8.50
2019-03-27T08:22:27.003Z,8.70
2019-03-27T08:24:58.118Z,8.70
2019-03-27T08:27:33.135Z,8.70
2019-03-27T08:30:06.853Z,8.80
2019-03-27T08:32:37.898Z,8.90
2019-03-27T08:35:10.303Z,9.10
2019-03-27T08:37:41.379Z,9.20
2019-03-27T08:40:13.731Z,9.30
2019-03-27T08:42:44.652Z,9.30
2019-03-27T08:45:15.859Z,9.40
2019-03-27T08:47:46.895Z,9.50
2019-03-27T08:50:18.635Z,9.50
2019-03-27T08:52:49.724Z,9.50
2019-03-27T08:55:24.002Z,9.40
2019-03-27T08:57:55.205Z,9.50
2019-03-27T09:00:49.389Z,9.60
2019-03-27T09:03:20.512Z,9.70
2019-03-27T09:05:52.763Z,9.70
2019-03-27T09:08:23.789Z,9.60
2019-03-27T09:10:55.080Z,9.70
2019-03-27T09:13:26.213Z,9.80
2019-03-27T09:15:57.489Z,9.80
2019-03-27T09:18:28.522Z,9.80
2019-03-27T09:20:59.966Z,9.70
2019-03-27T09:23:31.011Z,9.70
2019-03-27T09:26:02.411Z,9.80
2019-03-27T09:28:33.516Z,9.90
2019-03-27T09:31:04.689Z,10.10
2019-03-27T09:33:35.584Z,10.40
2019-03-27T09:36:07.085Z,10.50
2019-03-27T09:38:38.360Z,10.70
2019-03-27T09:41:09.410Z,10.70
2019-03-27T09:43:40.624Z,10.80
2019-03-27T09:46:11.802Z,10.80
2019-03-27T09:48:43.708Z,10.90
2019-03-27T09:51:14.842Z,10.90
2019-03-27T09:53:45.728Z,10.90
2019-03-27T09:56:19.704Z,11.00
2019-03-27T09:58:50.859Z,11.00
2019-03-27T10:01:21.856Z,11.10
2019-03-27T10:03:52.745Z,11.20
2019-03-27T10:06:23.894Z,11.10
2019-03-27T10:08:55.024Z,11.00
2019-03-27T10:11:26.164Z,11.00
2019-03-27T10:13:57.394Z,11.00
2019-03-27T10:16:28.596Z,10.90
2019-03-27T10:18:59.792Z,10.80
2019-03-27T10:21:31.185Z,10.80
2019-03-27T10:24:02.250Z,10.70
2019-03-27T10:26:33.416Z,10.70
2019-03-27T10:29:04.956Z,10.70
2019-03-27T10:31:35.884Z,10.70
2019-03-27T10:34:06.920Z,10.70
2019-03-27T10:36:38.074Z,10.80
2019-03-27T10:39:09.427Z,10.80
2019-03-27T10:41:40.578Z,10.90
2019-03-27T10:44:11.619Z,10.90
2019-03-27T10:46:42.643Z,11.00
2019-03-27T10:49:13.679Z,11.10
2019-03-27T10:51:45.257Z,11.10
2019-03-27T10:54:16.336Z,11.20
2019-03-27T10:56:47.647Z,11.20
2019-03-27T10:59:18.685Z,11.20
2019-03-27T11:01:49.746Z,11.20
2019-03-27T11:04:20.816Z,11.30
2019-03-27T11:06:51.951Z,11.30
2019-03-27T11:09:23.057Z,11.30
2019-03-27T11:11:54.518Z,11.20
2019-03-27T11:14:37.242Z,11.20
2019-03-27T11:16:58.440Z,11.10
2019-03-27T11:19:29.645Z,11.00
2019-03-27T11:22:01.280Z,11.00
2019-03-27T11:24:33.082Z,11.10
2019-03-27T11:27:04.369Z,11.10
2019-03-27T11:29:35.339Z,11.30
2019-03-27T11:32:06.504Z,11.40
2019-03-27T11:34:37.453Z,11.40
2019-03-27T11:37:08.600Z,11.50
2019-03-27T11:39:40.012Z,11.60
2019-03-27T11:42:11.212Z,11.60
2019-03-27T11:44:42.079Z,11.60
2019-03-27T11:47:13.627Z,11.60
2019-03-27T11:49:44.746Z,11.60
2019-03-27T11:52:15.975Z,11.80
2019-03-27T11:54:47.267Z,11.90
2019-03-27T11:57:18.477Z,12.10
2019-03-27T11:59:54.319Z,12.20
2019-03-27T12:02:22.903Z,12.40
2019-03-27T12:04:54.092Z,12.50
2019-03-27T12:07:25.311Z,12.60
2019-03-27T12:09:56.351Z,12.70
2019-03-27T12:12:27.522Z,12.80
2019-03-27T12:14:58.667Z,12.90
2019-03-27T12:17:29.617Z,13.00
2019-03-27T12:20:00.662Z,12.90
2019-03-27T12:22:33.413Z,13.10
2019-03-27T12:25:04.413Z,13.20
2019-03-27T12:27:35.628Z,13.30
2019-03-27T12:30:07.670Z,13.50
2019-03-27T12:32:38.682Z,14.00
2019-03-27T12:35:09.818Z,14.80
2019-03-27T12:37:41.141Z,14.60
2019-03-27T12:40:12.246Z,14.10
2019-03-27T12:42:43.251Z,13.50
2019-03-27T12:45:14.690Z,13.20
2019-03-27T12:47:45.802Z,13.00
2019-03-27T12:50:17.018Z,12.80
2019-03-27T12:52:48.332Z,12.70
2019-03-27T12:55:19.470Z,12.60
2019-03-27T12:57:50.594Z,12.50
2019-03-27T13:00:21.975Z,12.50
2019-03-27T13:02:53.086Z,12.60
2019-03-27T13:05:24.162Z,12.60
2019-03-27T13:07:55.486Z,12.50
2019-03-27T13:10:26.463Z,12.40
2019-03-27T13:12:57.921Z,12.50
2019-03-27T13:15:28.988Z,12.50
2019-03-27T13:18:00.074Z,12.60
2019-03-27T13:20:31.155Z,12.60
2019-03-27T13:23:05.096Z,12.50
2019-03-27T13:25:36.250Z,12.50
2019-03-27T13:28:07.461Z,12.60
2019-03-27T13:30:38.996Z,12.90
2019-03-27T13:33:11.241Z,12.90
2019-03-27T13:35:42.539Z,12.90
2019-03-27T13:38:14.143Z,12.90
2019-03-27T13:40:45.184Z,12.80
2019-03-27T13:43:16.205Z,12.80
2019-03-27T13:45:47.170Z,12.90
2019-03-27T13:48:19.318Z,13.20
2019-03-27T13:50:50.255Z,13.20
2019-03-27T13:53:21.463Z,13.00
2019-03-27T13:55:52.469Z,12.70
2019-03-27T13:58:23.679Z,12.90
2019-03-27T14:00:54.584Z,13.60
2019-03-27T14:03:25.631Z,14.60
2019-03-27T14:05:56.623Z,14.60
2019-03-27T14:08:27.733Z,14.70
2019-03-27T14:10:58.894Z,15.00
2019-03-27T14:13:29.886Z,15.10
2019-03-27T14:16:01.330Z,15.30
2019-03-27T14:18:32.367Z,15.60
2019-03-27T14:21:03.859Z,16.30
2019-03-27T14:23:37.643Z,16.40
2019-03-27T14:26:08.634Z,16.50
2019-03-27T14:28:39.611Z,16.20
2019-03-27T14:31:10.731Z,16.00
2019-03-27T14:33:41.804Z,15.60
2019-03-27T14:36:12.808Z,15.90
2019-03-27T14:38:43.907Z,15.70
2019-03-27T14:41:14.712Z,15.30
2019-03-27T14:43:47.313Z,14.80
2019-03-27T14:46:19.203Z,14.40
2019-03-27T14:48:50.223Z,13.90
2019-03-27T14:51:21.252Z,13.70
2019-03-27T14:53:52.663Z,13.60
2019-03-27T14:56:23.870Z,13.40
2019-03-27T14:58:54.872Z,13.30
2019-03-27T15:01:25.842Z,13.20
2019-03-27T15:03:56.974Z,13.20
2019-03-27T15:06:28.325Z,13.10
2019-03-27T15:08:59.946Z,13.00
2019-03-27T15:11:31.059Z,12.90
2019-03-27T15:14:02.328Z,12.80
2019-03-27T15:16:33.380Z,12.90
2019-03-27T15:19:04.557Z,12.80
2019-03-27T15:21:36.072Z,12.60
2019-03-27T15:24:07.840Z,12.70
2019-03-27T15:26:38.782Z,12.70
2019-03-27T15:29:09.968Z,12.70
2019-03-27T15:31:45.416Z,12.50
2019-03-27T15:34:16.684Z,12.40
2019-03-27T15:36:47.790Z,12.20
2019-03-27T15:39:20.463Z,12.10
2019-03-27T15:41:51.581Z,12.10
2019-03-27T15:44:23.814Z,12.20
2019-03-27T15:46:54.863Z,12.30
2019-03-27T15:49:25.900Z,12.30
2019-03-27T15:51:56.942Z,12.40
2019-03-27T15:54:31.411Z,12.40
2019-03-27T15:57:05.637Z,12.50
2019-03-27T15:59:36.714Z,12.60
2019-03-27T16:02:12.014Z,12.40
2019-03-27T16:04:43.092Z,12.20
2019-03-27T16:07:14.211Z,12.10
2019-03-27T16:09:47.503Z,12.00
2019-03-27T16:12:19.598Z,12.00
2019-03-27T16:14:50.656Z,12.00
2019-03-27T16:17:22.497Z,12.10
2019-03-27T16:19:54.553Z,12.10
2019-03-27T16:22:25.594Z,12.20
2019-03-27T16:24:56.721Z,12.20
2019-03-27T16:27:27.606Z,12.20
2019-03-27T16:29:58.906Z,12.30
2019-03-27T16:32:29.909Z,12.20
2019-03-27T16:35:01.119Z,12.20
2019-03-27T16:37:32.072Z,12.10
2019-03-27T16:40:06.084Z,12.10
2019-03-27T16:42:37.113Z,12.10
2019-03-27T16:45:09.225Z,12.10
2019-03-27T16:47:40.413Z,12.10
2019-03-27T16:50:12.310Z,12.00
2019-03-27T16:52:43.669Z,12.00
2019-03-27T16:55:15.029Z,12.00
2019-03-27T16:57:46.037Z,12.00
2019-03-27T17:00:17.166Z,11.90
2019-03-27T17:02:48.130Z,11.80
2019-03-27T17:05:19.259Z,11.70
2019-03-27T17:07:50.256Z,11.60
2019-03-27T17:10:21.881Z,11.50
2019-03-27T17:12:53.005Z,11.40
2019-03-27T17:15:24.160Z,11.40
2019-03-27T17:17:55.490Z,11.30
2019-03-27T17:20:26.661Z,11.20
2019-03-27T17:22:57.869Z,11.20
2019-03-27T17:25:28.962Z,11.10
2019-03-27T17:28:00.000Z,11.00
2019-03-27T17:30:32.078Z,11.00
2019-03-27T17:33:03.321Z,10.90
2019-03-27T17:35:34.442Z,10.80
2019-03-27T17:38:05.425Z,10.70
2019-03-27T17:40:36.685Z,10.70
2019-03-27T17:43:07.674Z,10.60
2019-03-27T17:45:39.029Z,10.50
2019-03-27T17:48:10.044Z,10.50
2019-03-27T17:50:41.414Z,10.40
2019-03-27T17:53:12.383Z,10.30
2019-03-27T17:55:43.471Z,10.20
2019-03-27T17:58:14.557Z,10.10
2019-03-27T18:00:52.863Z,10.00
2019-03-27T18:03:23.899Z,10.00
2019-03-27T18:05:55.092Z,9.90
2019-03-27T18:08:26.051Z,9.90
2019-03-27T18:10:57.398Z,9.80
2019-03-27T18:13:29.589Z,9.80
2019-03-27T18:16:00.697Z,9.70
2019-03-27T18:18:31.850Z,9.70
2019-03-27T18:21:03.280Z,9.60
2019-03-27T18:23:45.256Z,9.60
2019-03-27T18:26:07.303Z,9.60
2019-03-27T18:28:38.481Z,9.50
2019-03-27T18:31:09.527Z,9.50
2019-03-27T18:33:40.653Z,9.40
2019-03-27T18:36:11.604Z,9.40
2019-03-27T18:38:45.693Z,9.40
2019-03-27T18:41:15.570Z,9.30
2019-03-27T18:43:46.685Z,9.20
2019-03-27T18:46:18.041Z,9.20
2019-03-27T18:48:49.145Z,9.10
2019-03-27T18:51:20.723Z,9.10
2019-03-27T18:53:59.449Z,9.00
2019-03-27T18:56:24.851Z,9.00
2019-03-27T18:58:56.000Z,9.00
2019-03-27T19:01:27.119Z,9.00
2019-03-27T19:03:58.163Z,8.90
2019-03-27T19:06:29.240Z,8.90
2019-03-27T19:09:00.337Z,8.90
2019-03-27T19:11:31.567Z,8.80
2019-03-27T19:14:02.669Z,8.80
2019-03-27T19:16:33.898Z,8.80
2019-03-27T19:19:06.559Z,8.70
2019-03-27T19:21:37.889Z,8.60
2019-03-27T19:24:16.200Z,8.60
2019-03-27T19:26:43.305Z,8.60
2019-03-27T19:29:14.743Z,8.50
2019-03-27T19:31:46.144Z,8.50
2019-03-27T19:34:17.277Z,8.40
2019-03-27T19:36:48.305Z,8.40
2019-03-27T19:39:20.281Z,8.30
2019-03-27T19:41:51.799Z,8.20
2019-03-27T19:44:22.921Z,8.20
2019-03-27T19:46:54.025Z,8.10
2019-03-27T19:49:25.133Z,8.10
2019-03-27T19:51:56.281Z,8.10
2019-03-27T19:54:29.197Z,8.10
2019-03-27T19:57:00.551Z,8.00
2019-03-27T19:59:31.848Z,8.00
2019-03-27T20:02:03.066Z,8.10
2019-03-27T20:04:34.171Z,8.00
2019-03-27T20:07:05.285Z,8.00
2019-03-27T20:09:36.342Z,8.00
2019-03-27T20:12:07.486Z,8.00
2019-03-27T20:14:38.618Z,7.90
2019-03-27T20:17:09.672Z,7.90
2019-03-27T20:19:41.757Z,7.90
2019-03-27T20:22:13.110Z,7.90
2019-03-27T20:24:44.580Z,7.80
2019-03-27T20:27:15.696Z,7.80
2019-03-27T20:29:46.803Z,7.80
2019-03-27T20:32:17.933Z,7.80
2019-03-27T20:34:49.046Z,7.70
2019-03-27T20:37:20.286Z,7.60
2019-03-27T20:39:51.333Z,7.50
2019-03-27T20:42:22.404Z,7.40
2019-03-27T20:44:53.772Z,7.30
2019-03-27T20:47:25.834Z,7.20
2019-03-27T20:49:56.863Z,7.20
2019-03-27T20:52:27.972Z,7.10
2019-03-27T20:54:59.034Z,7.10
2019-03-27T20:57:30.569Z,7.10
2019-03-27T21:00:01.699Z,7.10
2019-03-27T21:02:34.640Z,7.10
2019-03-27T21:05:05.832Z,7.10
2019-03-27T21:07:37.407Z,7.10
2019-03-27T21:10:09.194Z,7.10
2019-03-27T21:12:40.548Z,7.20
2019-03-27T21:15:11.622Z,7.20
2019-03-27T21:17:43.049Z,7.10
2019-03-27T21:20:14.461Z,7.10
2019-03-27T21:22:50.126Z,7.10
2019-03-27T21:25:21.327Z,7.10
2019-03-27T21:27:52.873Z,7.10
2019-03-27T21:30:24.010Z,7.10
2019-03-27T21:32:55.771Z,7.10
2019-03-27T21:35:26.856Z,7.10
2019-03-27T21:37:58.160Z,7.00
2019-03-27T21:40:29.180Z,7.00
2019-03-27T21:43:00.214Z,7.00
2019-03-27T21:45:32.461Z,6.90
2019-03-27T21:48:03.768Z,6.90
2019-03-27T21:50:35.996Z,6.90
2019-03-27T21:53:07.103Z,7.00
2019-03-27T21:55:42.912Z,7.00
2019-03-27T21:58:11.822Z,6.90
2019-03-27T22:00:43.059Z,6.80
2019-03-27T22:03:14.044Z,6.70
2019-03-27T22:05:45.374Z,6.60
2019-03-27T22:08:16.371Z,6.60
2019-03-27T22:10:47.335Z,6.60
2019-03-27T22:13:18.428Z,6.50
2019-03-27T22:15:50.275Z,6.40
2019-03-27T22:18:21.373Z,6.40
2019-03-27T22:20:52.630Z,6.40
2019-03-27T22:23:23.802Z,6.40
2019-03-27T22:25:55.871Z,6.30
2019-03-27T22:28:26.830Z,6.30
2019-03-27T22:30:58.189Z,6.30
2019-03-27T22:33:29.246Z,6.30
2019-03-27T22:36:00.384Z,6.20
2019-03-27T22:38:32.453Z,6.20
2019-03-27T22:41:03.762Z,6.20
2019-03-27T22:43:34.803Z,6.20
2019-03-27T22:46:05.892Z,6.20
2019-03-27T22:48:36.831Z,6.20
2019-03-27T22:51:08.133Z,6.20
2019-03-27T22:53:39.276Z,6.20
2019-03-27T22:56:10.534Z,6.20
2019-03-27T22:58:41.606Z,6.20
2019-03-27T23:01:12.744Z,6.20
2019-03-27T23:03:45.390Z,6.10
2019-03-27T23:06:17.953Z,6.10
2019-03-27T23:08:49.123Z,6.10
2019-03-27T23:11:20.196Z,6.10
2019-03-27T23:13:52.790Z,6.10
2019-03-27T23:16:23.803Z,6.00
2019-03-27T23:18:54.734Z,6.00
2019-03-27T23:21:28.435Z,5.90
2019-03-27T23:24:01.474Z,5.90
2019-03-27T23:26:32.593Z,5.90
2019-03-27T23:29:04.342Z,5.90
2019-03-27T23:31:35.603Z,5.90
2019-03-27T23:34:06.607Z,5.90
2019-03-27T23:36:37.677Z,5.90
2019-03-27T23:39:09.337Z,5.90
2019-03-27T23:41:40.494Z,5.90
2019-03-27T23:44:14.117Z,5.90
2019-03-27T23:46:46.451Z,5.90
2019-03-27T23:49:17.428Z,5.80
2019-03-27T23:51:49.868Z,5.80
2019-03-27T23:54:20.978Z,5.80
2019-03-27T23:56:52.418Z,5.80
2019-03-27T23:59:23.491Z,5.70
